EDT,Max TemperatureF,Mean TemperatureF,Min TemperatureF,Max Dew PointF,MeanDew PointF,Min DewpointF,Max Humidity, Mean Humidity, Min Humidity, Max Sea Level PressureIn, Mean Sea Level PressureIn, Min Sea Level PressureIn, Max VisibilityMiles, Mean VisibilityMiles, Min VisibilityMiles, Max Wind SpeedMPH, Mean Wind SpeedMPH, Max Gust SpeedMPH,PrecipitationIn, CloudCover, Events, WindDirDegrees
2011-10-1,61,50,38,38,35,29,82,56,29,30.22,30.16,30.07,10,10,10,18,8,25,0.00,0,,349
2011-10-2,67,51,35,41,35,29,92,59,26,30.26,30.19,30.13,10,10,10,12,4,17,0.00,0,,343
2011-10-3,74,55,35,47,40,35,100,67,33,30.21,30.17,30.14,10,10,10,13,2,18,0.00,0,,333
2011-10-4,78,59,40,48,42,39,100,63,26,30.31,30.25,30.20,10,10,9,7,1,10,0.00,0,,98
2011-10-5,79,61,42,53,46,41,100,65,30,30.31,30.25,30.21,10,10,10,8,1,10,0.00,0,,122
2011-10-6,81,64,46,54,49,45,100,67,33,30.29,30.25,30.22,10,8,2,9,2,12,0.00,0,,135
2011-10-7,83,65,47,55,51,45,100,69,37,30.36,30.30,30.26,10,10,4,10,2,14,0.00,0,,133
2011-10-8,80,64,47,56,50,46,96,68,39,30.39,30.33,30.30,10,7,0,12,3,16,0.00,0,Fog,183
2011-10-9,77,60,43,56,47,42,100,69,38,30.37,30.31,30.22,10,4,0,10,3,13,0.00,1,Fog,109
2011-10-10,78,62,46,54,50,46,93,66,39,30.22,30.15,30.06,10,10,10,9,2,14,0.00,0,,126
2011-10-11,78,62,46,53,50,46,100,68,36,30.05,30.00,29.92,10,8,0,13,3,18,0.00,1,Fog,120
2011-10-12,71,63,54,59,57,51,93,77,61,29.90,29.81,29.70,10,10,5,12,4,14,0.02,6,Rain,136
2011-10-13,66,61,56,61,57,55,100,89,78,29.68,29.58,29.50,10,6,2,17,6,26,0.43,7,Rain,226
2011-10-14,65,57,49,51,42,37,86,63,39,29.83,29.70,29.59,10,10,10,24,11,35,0.00,2,,275
2011-10-15,64,55,46,40,37,34,71,53,34,29.99,29.94,29.85,10,10,10,20,10,26,0.00,0,,261
2011-10-16,79,65,50,49,41,36,63,48,33,30.00,29.88,29.77,10,10,10,26,11,37,0.00,4,,255
2011-10-17,64,51,38,41,36,28,92,60,27,29.99,29.93,29.88,10,10,10,10,4,14,0.02,2,Rain,281
2011-10-18,48,46,43,45,42,39,92,84,76,29.88,29.77,29.69,10,9,1,16,7,22,0.34,8,Rain,2
2011-10-19,46,45,43,45,43,41,100,96,92,29.66,29.51,29.42,10,5,2,17,10,28,1.17,8,Rain,324
2011-10-20,44,42,40,43,39,35,96,83,70,29.96,29.65,29.42,10,6,2,23,12,36,0.62,8,Rain,283
2011-10-21,57,46,34,38,36,33,92,68,43,30.14,30.07,29.96,10,10,10,12,4,15,0.00,2,,268
2011-10-22,63,47,30,39,34,29,92,63,34,30.17,30.12,30.07,10,10,10,13,2,18,0.00,0,,232
2011-10-23,68,54,39,51,42,36,92,70,48,30.08,30.03,29.99,10,10,10,14,6,18,0.01,3,Rain,194
2011-10-24,67,53,39,50,41,33,82,56,29,30.20,30.07,29.97,10,10,10,18,7,25,T,1,,266
2011-10-25,76,56,36,42,38,35,92,59,25,30.19,30.07,29.89,10,10,10,21,8,30,0.00,0,,183
2011-10-26,73,61,49,56,50,43,93,65,37,29.87,29.84,29.79,10,7,2,23,11,32,0.63,6,Rain-Thunderstorm,286
2011-10-27,49,42,34,48,44,37,100,83,66,30.15,29.94,29.83,10,8,2,15,5,23,0.08,7,Rain,347
2011-10-28,54,44,33,38,34,29,100,69,38,30.20,30.14,30.09,10,8,2,10,2,13,0.00,2,,39
2011-10-29,59,44,29,35,28,20,89,56,23,30.16,30.11,30.07,10,10,10,28,5,37,0.00,0,,272
2011-10-30,62,45,27,31,28,25,85,57,28,30.24,30.15,30.06,10,10,10,17,6,24,0.00,3,,172
2011-10-31,60,46,32,41,34,29,92,63,33,30.18,30.08,30.02,10,10,8,21,5,28,0.08,2,Rain,228